Zaliv Vostok — A8RM6 — position and weather

sailwx.info

Track history (hours):
 
Tides and Currents Weather Stations Pressure Air Temp Water Temp Dewpoint Dewpoint Depression Visibility Wind Speed Wind Dir Waves Ship Positions

Zaliv Vostok

Last reported at 2015-Aug-18 12:14 UTC. Time now 2015-Aug-31 08:51 UTC.
Position N 31°44' E 031°57'.
Warning: this ship's position is 12 days out of date.

Length 243 m; draft 14 m.

Type: Tanker. MMSI: 636014127.

Date/timePositionNaut miles runAvg speedWind from/ knotsBaromVisibWave heightAir tempDewpointWater temp
2015-Aug-18 12:14N 31°44' E 031°57'812.1
2015-Aug-18 11:33N 31°50' E 031°50'1312.1
2015-Aug-18 10:28N 31°55' E 031°36'2312.1
2015-Aug-18 08:32N 32°03' E 031°10'5111.5
2015-Aug-18 04:05N 32°20' E 030°13'  
2015-Aug-15 20:27N 35°34' E 017°14'1212.3
2015-Aug-15 19:28N 35°38' E 017°00'1212.1
2015-Aug-15 18:29N 35°41' E 016°46'1412.1
2015-Aug-15 17:22N 35°45' E 016°30'1112.1
2015-Aug-15 16:26N 35°48' E 016°17'1212.2
2015-Aug-15 15:28N 35°52' E 016°03'1612.3
2015-Aug-15 14:10N 35°56' E 015°44'812.3
2015-Aug-15 13:33N 35°59' E 015°35'1212.1
2015-Aug-15 12:33N 36°02' E 015°21'1312.6
2015-Aug-15 11:33N 36°06' E 015°06'1212.2
2015-Aug-15 10:34N 36°11' E 014°52'1211.7
2015-Aug-15 09:33N 36°14' E 014°38'1212.0
2015-Aug-15 08:34N 36°18' E 014°24'1211.9
2015-Aug-15 07:33N 36°22' E 014°10'1211.9
2015-Aug-15 06:33N 36°25' E 013°56'1211.7
2015-Aug-15 05:34N 36°30' E 013°43'1212.3
2015-Aug-15 04:34N 36°34' E 013°29'1212.4
2015-Aug-15 03:34N 36°38' E 013°14'1212.4
2015-Aug-15 02:34N 36°42' E 012°59'1212.4
2015-Aug-15 01:34N 36°46' E 012°45'1212.3
2015-Aug-15 00:33N 36°51' E 012°30'1212.1
2015-Aug-14 23:33N 36°55' E 012°16'1212.1
2015-Aug-14 22:32N 36°59' E 012°02'37012.2
2015-Aug-13 16:14N 37°30' E 004°18'812.1
2015-Aug-13 15:33N 37°29' E 004°08'1211.7
2015-Aug-13 14:34N 37°27' E 003°53'10212.3
2015-Aug-13 06:15N 37°05' E 001°48'2512.4
2015-Aug-13 04:16N 36°60' E 001°18'4912.8
2015-Aug-13 00:28N 36°49' E 000°19'1412.5
2015-Aug-12 23:21N 36°45' E 000°02'1012.0
2015-Aug-12 22:33N 36°43' W 000°10'1212.1
2015-Aug-12 21:33N 36°39' W 000°24'1412.4
2015-Aug-12 20:22N 36°36' W 000°42'1012.3
2015-Aug-12 19:33N 36°35' W 000°54'1412.0
2015-Aug-12 18:25N 36°32' W 001°11'1112.1
2015-Aug-12 17:33N 36°30' W 001°24'1212.1
2015-Aug-12 16:32N 36°27' W 001°39'1212.0
2015-Aug-12 15:31N 36°25' W 001°54'1212.0
2015-Aug-12 14:33N 36°22' W 002°08'1312.4
2015-Aug-12 13:31N 36°20' W 002°23'1212.4
2015-Aug-12 12:32N 36°19' W 002°38'19413.0
2015-Aug-11 21:32N 35°58' W 006°38'1412.1
2015-Aug-11 20:25N 36°01' W 006°54'1112.4
2015-Aug-11 19:33N 36°04' W 007°07'1212.2
2015-Aug-11 18:33N 36°07' W 007°21'1212.3
2015-Aug-11 17:33N 36°10' W 007°36'1212.2
2015-Aug-11 16:33N 36°12' W 007°51'1312.5
2015-Aug-11 15:33N 36°15' W 008°06'1312.7
2015-Aug-11 14:30N 36°18' W 008°22'1312.8
2015-Aug-11 13:31N 36°21' W 008°37'1212.6
2015-Aug-11 12:33N 36°24' W 008°52'1312.7
2015-Aug-11 11:33N 36°27' W 009°07'1211.7
2015-Aug-11 10:33N 36°31' W 009°21'1212.0
2015-Aug-11 09:33N 36°39' W 009°31'1212.0
2015-Aug-11 08:33N 36°50' W 009°39'1312.4
2015-Aug-11 07:33N 37°02' W 009°43'1212.5
2015-Aug-11 06:33N 37°14' W 009°46'1312.7
2015-Aug-11 05:33N 37°26' W 009°50'1312.7
2015-Aug-11 04:33N 37°39' W 009°54'1312.8
2015-Aug-11 03:33N 37°51' W 009°57'1313.0
2015-Aug-11 02:33N 38°04' W 010°01'1312.9
2015-Aug-11 01:33N 38°16' W 010°05'1312.8
2015-Aug-11 00:33N 38°29' W 010°09'1312.7
2015-Aug-10 23:33N 38°41' W 010°12'1312.6
2015-Aug-10 22:33N 38°54' W 010°12'1312.6
2015-Aug-10 21:33N 39°06' W 010°12'1412.5
2015-Aug-10 20:25N 39°20' W 010°12'1112.7
2015-Aug-10 19:33N 39°31' W 010°12'1212.5
2015-Aug-10 18:33N 39°44' W 010°12'1212.3
2015-Aug-10 17:33N 39°56' W 010°13'1212.4
2015-Aug-10 16:33N 40°09' W 010°13'4112.3
2015-Aug-10 13:15N 40°49' W 010°13'1212.2
2015-Aug-10 12:17N 41°01' W 010°13'2112.2
2015-Aug-10 10:33N 41°22' W 010°12'21212.5
2015-Aug-09 17:33N 44°48' W 009°04'2613.0
2015-Aug-09 15:31N 45°11' W 008°46'1212.2
2015-Aug-09 14:33N 45°22' W 008°39'1212.2
2015-Aug-09 13:33N 45°32' W 008°30'2512.5
2015-Aug-09 11:33N 45°55' W 008°13'1512.8
2015-Aug-09 10:21N 46°08' W 008°03'  
Track history (hours):
 
Tides and Currents Weather Stations Pressure Air Temp Water Temp Dewpoint Dewpoint Depression Visibility Wind Speed Wind Dir Waves Ship Positions

Zaliv Vostok

Last reported at 2015-Aug-18 12:14 UTC. Time now 2015-Aug-31 08:51 UTC.
Position N 31°44' E 031°57'.
Warning: this ship's position is 12 days out of date.

Length 243 m; draft 14 m.

Type: Tanker. MMSI: 636014127.

Date/timePositionNaut miles runAvg speedWind from/ knotsBaromVisibWave heightAir tempDewpointWater temp
2015-Aug-18 12:14N 31°44' E 031°57'812.1
2015-Aug-18 11:33N 31°50' E 031°50'1312.1
2015-Aug-18 10:28N 31°55' E 031°36'2312.1
2015-Aug-18 08:32N 32°03' E 031°10'5111.5
2015-Aug-18 04:05N 32°20' E 030°13'  
2015-Aug-15 20:27N 35°34' E 017°14'1212.3
2015-Aug-15 19:28N 35°38' E 017°00'1212.1
2015-Aug-15 18:29N 35°41' E 016°46'1412.1
2015-Aug-15 17:22N 35°45' E 016°30'1112.1
2015-Aug-15 16:26N 35°48' E 016°17'1212.2
2015-Aug-15 15:28N 35°52' E 016°03'1612.3
2015-Aug-15 14:10N 35°56' E 015°44'812.3
2015-Aug-15 13:33N 35°59' E 015°35'1212.1
2015-Aug-15 12:33N 36°02' E 015°21'1312.6
2015-Aug-15 11:33N 36°06' E 015°06'1212.2
2015-Aug-15 10:34N 36°11' E 014°52'1211.7
2015-Aug-15 09:33N 36°14' E 014°38'1212.0
2015-Aug-15 08:34N 36°18' E 014°24'1211.9
2015-Aug-15 07:33N 36°22' E 014°10'1211.9
2015-Aug-15 06:33N 36°25' E 013°56'1211.7
2015-Aug-15 05:34N 36°30' E 013°43'1212.3
2015-Aug-15 04:34N 36°34' E 013°29'1212.4
2015-Aug-15 03:34N 36°38' E 013°14'1212.4
2015-Aug-15 02:34N 36°42' E 012°59'1212.4
2015-Aug-15 01:34N 36°46' E 012°45'1212.3
2015-Aug-15 00:33N 36°51' E 012°30'1212.1
2015-Aug-14 23:33N 36°55' E 012°16'1212.1
2015-Aug-14 22:32N 36°59' E 012°02'37012.2
2015-Aug-13 16:14N 37°30' E 004°18'812.1
2015-Aug-13 15:33N 37°29' E 004°08'1211.7
2015-Aug-13 14:34N 37°27' E 003°53'10212.3
2015-Aug-13 06:15N 37°05' E 001°48'2512.4
2015-Aug-13 04:16N 36°60' E 001°18'4912.8
2015-Aug-13 00:28N 36°49' E 000°19'1412.5
2015-Aug-12 23:21N 36°45' E 000°02'1012.0
2015-Aug-12 22:33N 36°43' W 000°10'1212.1
2015-Aug-12 21:33N 36°39' W 000°24'1412.4
2015-Aug-12 20:22N 36°36' W 000°42'1012.3
2015-Aug-12 19:33N 36°35' W 000°54'1412.0
2015-Aug-12 18:25N 36°32' W 001°11'1112.1
2015-Aug-12 17:33N 36°30' W 001°24'1212.1
2015-Aug-12 16:32N 36°27' W 001°39'1212.0
2015-Aug-12 15:31N 36°25' W 001°54'1212.0
2015-Aug-12 14:33N 36°22' W 002°08'1312.4
2015-Aug-12 13:31N 36°20' W 002°23'1212.4
2015-Aug-12 12:32N 36°19' W 002°38'19413.0
2015-Aug-11 21:32N 35°58' W 006°38'1412.1
2015-Aug-11 20:25N 36°01' W 006°54'1112.4
2015-Aug-11 19:33N 36°04' W 007°07'1212.2
2015-Aug-11 18:33N 36°07' W 007°21'1212.3
2015-Aug-11 17:33N 36°10' W 007°36'1212.2
2015-Aug-11 16:33N 36°12' W 007°51'1312.5
2015-Aug-11 15:33N 36°15' W 008°06'1312.7
2015-Aug-11 14:30N 36°18' W 008°22'1312.8
2015-Aug-11 13:31N 36°21' W 008°37'1212.6
2015-Aug-11 12:33N 36°24' W 008°52'1312.7
2015-Aug-11 11:33N 36°27' W 009°07'1211.7
2015-Aug-11 10:33N 36°31' W 009°21'1212.0
2015-Aug-11 09:33N 36°39' W 009°31'1212.0
2015-Aug-11 08:33N 36°50' W 009°39'1312.4
2015-Aug-11 07:33N 37°02' W 009°43'1212.5
2015-Aug-11 06:33N 37°14' W 009°46'1312.7
2015-Aug-11 05:33N 37°26' W 009°50'1312.7
2015-Aug-11 04:33N 37°39' W 009°54'1312.8
2015-Aug-11 03:33N 37°51' W 009°57'1313.0
2015-Aug-11 02:33N 38°04' W 010°01'1312.9
2015-Aug-11 01:33N 38°16' W 010°05'1312.8
2015-Aug-11 00:33N 38°29' W 010°09'1312.7
2015-Aug-10 23:33N 38°41' W 010°12'1312.6
2015-Aug-10 22:33N 38°54' W 010°12'1312.6
2015-Aug-10 21:33N 39°06' W 010°12'1412.5
2015-Aug-10 20:25N 39°20' W 010°12'1112.7
2015-Aug-10 19:33N 39°31' W 010°12'1212.5
2015-Aug-10 18:33N 39°44' W 010°12'1212.3
2015-Aug-10 17:33N 39°56' W 010°13'1212.4
2015-Aug-10 16:33N 40°09' W 010°13'4112.3
2015-Aug-10 13:15N 40°49' W 010°13'1212.2
2015-Aug-10 12:17N 41°01' W 010°13'2112.2
2015-Aug-10 10:33N 41°22' W 010°12'21212.5
2015-Aug-09 17:33N 44°48' W 009°04'2613.0
2015-Aug-09 15:31N 45°11' W 008°46'1212.2
2015-Aug-09 14:33N 45°22' W 008°39'1212.2
2015-Aug-09 13:33N 45°32' W 008°30'2512.5
2015-Aug-09 11:33N 45°55' W 008°13'1512.8
2015-Aug-09 10:21N 46°08' W 008°03'  

Dump ship's entire track history